Hauptseite
METAR-TAF:

METAR-TAF

Flughäfen :

Kasuminome, Japan

Breite: 38-14N, Länge: 140-55E, Höhe: 7 m

Beobachtung

Neuester Wetterbericht von vor 10 Stunden und 22 Minuten, um 03:30 UTC
Wind 4 kt aus Ost/Südost
Temperatur 14°C
Luftfeuchtigkeit 94%
Luftdruck 1019 hPa
Sichtweite: 5000 m
Leicht bewölkt in der Höhe von 800 ft
Durchbrochene Bewölkung in der Höhe von 1200 ft
Durchbrochene Bewölkung in der Höhe von 1500 ft
Sprühregen leicht, feuchter Dunst

METAR: RJSU 230330Z 11004KT 5000 -DZ BR FEW008 BKN012 BKN015 14/13 Q1019 RMK 1ST008 5ST012 7ST015 A3009

Zeit: 22:52 (13:52 UTC)


TAF: fehlend

Wetterbeobachtungen und Prognosen von mehr als 4000 Flughäfen (METAR und TAF Bericht).

Die verfügbaren Stationen werden durch gelbe und rote Markierungen auf der Karte dargestellt.

Führen Sie die Maus auf sie, um den Namen der Station zu sehen.

Darauf klicken, um die Beobachtung von Wetterbeobachtungen und Prognosen zu sehen.

Um die Karte zu ändern : klicken Sie auf den grünen Tasten mit einem schwarzen Kreuz Zum Vergrößern, auf den grünen Button mit einem Gedankenstrich zu verkleinern, oder auf die grünen Pfeile für benachbarte Karten.


METAR-TAF: